Terminal Aerodrome Forecast
Issued by NWS

Home | Current Version | Previous Version | Text Only | Print | Product List | Glossary On
Versions: 1 2 3 4 5 6 7 8 9 10 11 12 13 14
396
FTUS41 KCAR 262320
TAFFVE
TAF
KFVE 262320Z 2700/2724 30004KT P6SM SCT080
     FM270400 VRB03KT P6SM SKC
     FM271600 VRB03KT 6SM -SHRA SCT025 BKN050=

USA.gov is the U.S. government's official web portal to all federal, state and local government web resources and services.